GMMX/RAK METAR and TAF weather

Enter ICAO airport designator
Station Type Date Time Source
GMMX METAR 2018/07/20 14:30 UTC NOAA

GMMX 201430Z VRB03KT 9999 BKN100 36/13 Q1015 NOSIG


Station Type Date Time Source
GMMX Decoded METAR 2018/07/20 14:30 UTC NOAA

Marrakech, Morocco (GMMX) 31-37N 008-02W 466M
Jul 20, 2018 - 10:30 AM EDT / 2018.07.20 1430 UTC
Wind: Variable at 3 MPH (3 KT):0
Visibility: greater than 7 mile(s):0
Sky conditions: mostly cloudy
Temperature: 96 F (36 C)
Heat index: 94.1 F (34.5 C):1
Dew Point: 55 F (13 C)
Relative Humidity: 25%
Pressure (altimeter): 29.97 in. Hg (1015 hPa)
ob: GMMX 201430Z VRB03KT 9999 BKN100 36/13 Q1015 NOSIG
cycle: 14

Station Type Date Time Source
GMMX TAF 2018/07/20 12:46 UTC NOAA

TAF GMMX 201100Z 2012/2118 30006KT 8000 SCT100
TEMPO 2015/2019 32014KT FEW026 FEW030TCU SCT100


Example: see airport list